Terminal Aerodrome Forecast
Issued by NWS Memphis, TN

Home | Current Version | Previous Version | Text Only | Print | Product List | Glossary On
Versions: 1 2 3 4 5 6 7 8 9 10 11 12 13 14 15 16 17 18 19 20
000
FTUS44 KMEG 191745
TAFMKL
TAF
KMKL 191745Z 1918/2018 06006KT P6SM SCT025 OVC040
     FM200000 03003KT P6SM VCSH SCT015 OVC030
     FM200600 VRB03KT 5SM BR BKN009 OVC012
     FM201500 03003KT P6SM SCT015 BKN100=

USA.gov is the U.S. government's official web portal to all federal, state and local government web resources and services.